createdAt,value
2022-09-06T00:04:23.357Z,96916.94
2022-09-06T00:09:25.689Z,96906.69
2022-09-06T00:14:27.817Z,96901.56
2022-09-06T00:19:30.078Z,96886.56
2022-09-06T00:24:32.389Z,96903.31
2022-09-06T00:29:35.261Z,96871.94
2022-09-06T00:34:37.574Z,96892.97
2022-09-06T00:39:39.873Z,96888.88
2022-09-06T00:44:42.100Z,96891.66
2022-09-06T00:49:49.851Z,96900.75
2022-09-06T00:54:53.055Z,96902.84
2022-09-06T00:59:56.456Z,96886.41
2022-09-06T01:04:58.929Z,96884.97
2022-09-06T01:10:25.672Z,96896.16
2022-09-06T01:15:53.850Z,96896.19
2022-09-06T01:21:07.626Z,96890.03
2022-09-06T01:26:37.367Z,96899.50
2022-09-06T01:31:47.084Z,96887.44
2022-09-06T01:37:13.252Z,96872.13
2022-09-06T01:42:23.809Z,96883.34
2022-09-06T01:47:47.744Z,96908.78
2022-09-06T01:53:09.513Z,96902.28
2022-09-06T01:58:35.719Z,96892.22
2022-09-06T02:03:48.002Z,96891.91
2022-09-06T02:09:12.460Z,96876.25
2022-09-06T02:14:41.268Z,96886.09
2022-09-06T02:19:55.522Z,96839.91
2022-09-06T02:25:00.845Z,96872.81
2022-09-06T02:30:05.822Z,96875.31
2022-09-06T02:35:16.405Z,96872.28
2022-09-06T02:40:19.383Z,96870.59
2022-09-06T02:45:21.711Z,96865.19
2022-09-06T02:50:24.061Z,96878.97
2022-09-06T02:55:26.305Z,96860.78
2022-09-06T03:00:29.884Z,96874.09
2022-09-06T03:05:32.994Z,96860.38
2022-09-06T03:10:35.347Z,96842.59
2022-09-06T03:15:37.605Z,96894.13
2022-09-06T03:20:39.900Z,96881.25
2022-09-06T03:25:43.433Z,96869.97
2022-09-06T03:30:47.604Z,96870.25
2022-09-06T03:35:56.120Z,96883.78
2022-09-06T03:40:58.974Z,96870.94
2022-09-06T03:46:01.167Z,96864.91
2022-09-06T03:51:03.390Z,96863.69
2022-09-06T03:56:05.920Z,96871.09
2022-09-06T04:01:12.609Z,96868.03
2022-09-06T04:06:15.398Z,96878.00
2022-09-06T04:11:17.731Z,96876.81
2022-09-06T04:16:20.166Z,96885.63
2022-09-06T04:21:23.222Z,96898.16
2022-09-06T04:26:25.517Z,96898.75
2022-09-06T04:31:27.889Z,96902.16
2022-09-06T04:36:30.160Z,96879.72
2022-09-06T04:41:32.273Z,96904.56
2022-09-06T04:46:34.590Z,96917.06
2022-09-06T04:51:39.429Z,96892.94
2022-09-06T04:56:41.573Z,96899.75
2022-09-06T05:01:43.724Z,96907.03
2022-09-06T05:06:46.060Z,96912.88
2022-09-06T05:11:48.303Z,96876.25
2022-09-06T05:16:50.733Z,96878.06
2022-09-06T05:21:53.009Z,96881.16
2022-09-06T05:26:55.646Z,96855.97
2022-09-06T05:31:58.116Z,96869.06
2022-09-06T05:37:00.473Z,96865.50
2022-09-06T05:42:06.856Z,96866.19
2022-09-06T05:47:09.129Z,96881.28
2022-09-06T05:52:11.355Z,96809.69
2022-09-06T05:57:13.822Z,96819.50
2022-09-06T06:02:16.219Z,96801.25
2022-09-06T06:07:18.645Z,96810.81
2022-09-06T06:12:20.777Z,96804.97
2022-09-06T06:17:23.291Z,96832.41
2022-09-06T06:22:25.638Z,96815.34
2022-09-06T06:27:27.805Z,96828.09
2022-09-06T06:32:30.068Z,96817.59
2022-09-06T06:37:33.576Z,96804.97
2022-09-06T06:42:37.940Z,96789.63
2022-09-06T06:47:40.514Z,96790.97
2022-09-06T06:52:43.061Z,96794.19
2022-09-06T06:57:45.326Z,96764.03
2022-09-06T07:02:47.413Z,96768.59
2022-09-06T07:07:49.773Z,96777.72
2022-09-06T07:12:52.209Z,96775.28
2022-09-06T07:18:03.009Z,96787.03
2022-09-06T07:28:28.471Z,96803.66
2022-09-06T07:33:44.812Z,96820.16
2022-09-06T07:38:51.208Z,96806.59
2022-09-06T07:43:55.090Z,96802.53
2022-09-06T07:48:57.454Z,96815.22
2022-09-06T07:54:28.665Z,96802.13
2022-09-06T07:59:22.325Z,96804.47
2022-09-06T08:04:24.697Z,96796.78
2022-09-06T08:09:27.025Z,96800.84
2022-09-06T08:14:29.297Z,96808.44
2022-09-06T08:19:31.518Z,96792.25
2022-09-06T08:24:35.962Z,96782.34
2022-09-06T08:35:05.895Z,96744.19
2022-09-06T08:40:08.883Z,96776.50
2022-09-06T08:45:15.998Z,96770.50
2022-09-06T08:50:19.817Z,96775.22
2022-09-06T08:55:46.674Z,96770.28
2022-09-06T09:00:58.784Z,96754.13
2022-09-06T09:06:03.783Z,96770.72
2022-09-06T09:11:19.303Z,96764.53
2022-09-06T09:16:23.015Z,96749.53
2022-09-06T09:21:30.455Z,96727.88
2022-09-06T09:26:44.564Z,96730.56
2022-09-06T09:31:54.857Z,96706.66
2022-09-06T09:42:49.783Z,96702.25
2022-09-06T09:47:52.195Z,96720.72
2022-09-06T09:52:54.755Z,96694.47
2022-09-06T09:57:57.182Z,96698.44
2022-09-06T10:03:01.753Z,96715.28
2022-09-06T10:08:04.133Z,96688.53
2022-09-06T10:13:31.623Z,96736.53
2022-09-06T10:18:42.685Z,96723.06
2022-09-06T10:29:56.285Z,96675.06
2022-09-06T10:35:20.334Z,96712.38
2022-09-06T10:40:33.746Z,96694.28
2022-09-06T10:46:11.866Z,96716.31
2022-09-06T10:51:35.064Z,96707.16
2022-09-06T10:57:05.091Z,96705.56
2022-09-06T11:02:30.922Z,96699.19
2022-09-06T11:07:40.475Z,96652.53
2022-09-06T11:12:55.020Z,96664.25
2022-09-06T11:18:10.026Z,96689.03
2022-09-06T11:23:30.798Z,96698.06
2022-09-06T11:28:58.522Z,96677.22
2022-09-06T11:34:10.405Z,96693.19
2022-09-06T11:39:15.137Z,96668.78
2022-09-06T11:44:55.573Z,96681.38
2022-09-06T11:49:57.937Z,96659.84
2022-09-06T11:55:00.126Z,96668.69
2022-09-06T12:00:04.831Z,96650.50
2022-09-06T12:05:09.862Z,96668.22
2022-09-06T12:10:30.495Z,96669.25
2022-09-06T12:15:46.668Z,96637.88
2022-09-06T12:20:48.971Z,96665.25
2022-09-06T12:25:55.218Z,96656.88
2022-09-06T12:30:57.807Z,96641.22
2022-09-06T12:36:14.833Z,96654.19
2022-09-06T12:46:39.558Z,96648.81
2022-09-06T12:51:43.026Z,96662.56
2022-09-06T12:56:45.215Z,96629.28
2022-09-06T13:02:00.801Z,96653.09
2022-09-06T13:07:04.463Z,96635.22
2022-09-06T13:12:25.090Z,96647.50
2022-09-06T13:17:29.976Z,96634.69
2022-09-06T13:22:47.616Z,96600.88
2022-09-06T13:27:58.356Z,96599.94
2022-09-06T13:33:02.217Z,96614.78
2022-09-06T13:38:41.288Z,96593.06
2022-09-06T13:43:46.273Z,96609.88
2022-09-06T13:48:48.581Z,96589.41
2022-09-06T13:53:51.289Z,96629.72
2022-09-06T13:58:53.521Z,96623.53
2022-09-06T14:03:55.858Z,96605.09
2022-09-06T14:09:13.759Z,96599.28
2022-09-06T14:14:18.107Z,96593.56
2022-09-06T14:19:20.502Z,96572.81
2022-09-06T14:24:22.885Z,96575.34
2022-09-06T14:29:25.210Z,96576.19
2022-09-06T14:34:28.047Z,96606.50
2022-09-06T14:39:30.321Z,96577.25
2022-09-06T14:44:32.550Z,96598.50
2022-09-06T14:49:34.932Z,96557.00
2022-09-06T14:54:37.222Z,96584.44
2022-09-06T14:59:39.535Z,96578.91
2022-09-06T15:04:42.147Z,96589.47
2022-09-06T15:09:44.312Z,96559.00
2022-09-06T15:14:46.863Z,96577.56
2022-09-06T15:19:49.348Z,96564.63
2022-09-06T15:24:51.745Z,96570.34
2022-09-06T15:29:53.975Z,96565.16
2022-09-06T15:34:56.417Z,96562.59
2022-09-06T15:39:59.394Z,96596.31
2022-09-06T15:45:01.736Z,96577.78
2022-09-06T15:50:04.301Z,96583.03
2022-09-06T15:55:25.681Z,96569.84
2022-09-06T16:00:28.045Z,96588.19
2022-09-06T16:10:52.811Z,96613.69
2022-09-06T16:16:02.605Z,96586.06
2022-09-06T16:21:13.169Z,96607.72
2022-09-06T16:26:20.596Z,96615.41
2022-09-06T16:31:24.662Z,96601.41
2022-09-06T16:36:28.527Z,96602.28
2022-09-06T16:41:42.817Z,96616.28
2022-09-06T16:46:47.235Z,96609.50
2022-09-06T16:51:50.800Z,96613.31
2022-09-06T16:56:53.110Z,96625.78
2022-09-06T17:01:56.308Z,96620.72
2022-09-06T17:06:58.597Z,96623.59
2022-09-06T17:12:00.734Z,96629.13
2022-09-06T17:17:05.729Z,96628.34
2022-09-06T17:22:10.537Z,96636.47
2022-09-06T17:27:13.073Z,96636.59
2022-09-06T17:32:15.272Z,96652.47
2022-09-06T17:37:17.549Z,96657.75
2022-09-06T17:42:20.013Z,96688.63
2022-09-06T17:47:22.355Z,96673.47
2022-09-06T17:52:24.862Z,96644.91
2022-09-06T17:57:27.316Z,96692.34
2022-09-06T18:02:29.669Z,96696.81
2022-09-06T18:07:31.908Z,96697.47
2022-09-06T18:12:34.600Z,96691.81
2022-09-06T18:17:36.997Z,96696.38
2022-09-06T18:22:40.605Z,96711.22
2022-09-06T18:27:42.807Z,96692.44
2022-09-06T18:32:45.210Z,96712.72
2022-09-06T18:37:47.494Z,96734.91
2022-09-06T18:42:50.127Z,96710.59
2022-09-06T18:47:52.580Z,96729.47
2022-09-06T18:52:55.981Z,96736.28
2022-09-06T18:57:58.699Z,96728.13
2022-09-06T19:03:01.265Z,96715.31
2022-09-06T19:08:05.542Z,96713.56
2022-09-06T19:13:08.118Z,96704.69
2022-09-06T19:18:10.544Z,96723.56
2022-09-06T19:23:13.038Z,96723.25
2022-09-06T19:28:15.177Z,96701.88
2022-09-06T19:33:17.966Z,96734.81
2022-09-06T19:38:20.538Z,96729.34
2022-09-06T19:43:22.689Z,96723.16
2022-09-06T19:48:26.035Z,96737.56
2022-09-06T19:53:29.782Z,96720.34
2022-09-06T19:58:33.194Z,96729.72
2022-09-06T20:03:38.154Z,96728.19
2022-09-06T20:08:40.711Z,96736.06
2022-09-06T20:13:43.090Z,96699.16
2022-09-06T20:18:45.691Z,96728.72
2022-09-06T20:23:52.404Z,96725.16
2022-09-06T20:28:56.973Z,96734.97
2022-09-06T20:34:01.987Z,96734.91
2022-09-06T20:39:04.899Z,96719.94
2022-09-06T20:44:07.169Z,96714.59
2022-09-06T20:49:09.470Z,96725.34
2022-09-06T20:54:12.026Z,96729.28
2022-09-06T20:59:17.510Z,96732.41
2022-09-06T21:04:19.915Z,96722.38
2022-09-06T21:09:22.129Z,96728.56
2022-09-06T21:14:24.384Z,96711.94
2022-09-06T21:19:26.824Z,96727.81
2022-09-06T21:24:29.201Z,96730.09
2022-09-06T21:29:31.364Z,96727.38
2022-09-06T21:34:33.551Z,96732.72
2022-09-06T21:39:35.766Z,96735.28
2022-09-06T21:44:38.264Z,96729.25
2022-09-06T21:49:40.446Z,96724.19
2022-09-06T21:54:42.710Z,96725.97
2022-09-06T21:59:45.203Z,96732.81
2022-09-06T22:04:47.505Z,96738.50
2022-09-06T22:09:49.898Z,96747.56
2022-09-06T22:14:52.086Z,96741.09
2022-09-06T22:19:54.289Z,96759.84
2022-09-06T22:24:56.749Z,96734.72
2022-09-06T22:29:59.045Z,96735.81
2022-09-06T22:35:01.268Z,96730.59
2022-09-06T22:40:04.216Z,96749.56
2022-09-06T22:45:06.784Z,96732.47
2022-09-06T22:50:09.694Z,96714.97
2022-09-06T22:55:11.992Z,96713.19
2022-09-06T23:00:14.409Z,96734.69
2022-09-06T23:05:17.894Z,96729.84
2022-09-06T23:10:20.155Z,96735.91
2022-09-06T23:15:22.989Z,96724.53
2022-09-06T23:20:25.709Z,96721.66
2022-09-06T23:25:28.329Z,96714.28
2022-09-06T23:30:30.861Z,96723.44
2022-09-06T23:35:32.974Z,96735.06
2022-09-06T23:40:35.300Z,96707.44
2022-09-06T23:45:37.655Z,96703.22
2022-09-06T23:50:39.973Z,96698.47
2022-09-06T23:55:44.385Z,96718.31
